createdAt,value
2022-10-09T00:01:34.240Z,8.20
2022-10-09T00:04:02.946Z,8.20
2022-10-09T00:06:34.960Z,8.10
2022-10-09T00:09:09.017Z,8.10
2022-10-09T00:11:37.331Z,8.00
2022-10-09T00:14:05.765Z,8.10
2022-10-09T00:16:34.094Z,8.00
2022-10-09T00:19:03.945Z,8.00
2022-10-09T00:21:35.017Z,7.90
2022-10-09T00:24:05.615Z,7.90
2022-10-09T00:26:34.499Z,7.90
2022-10-09T00:29:02.884Z,7.90
2022-10-09T00:31:31.193Z,7.80
2022-10-09T00:33:59.529Z,7.80
2022-10-09T00:36:28.411Z,7.70
2022-10-09T00:38:58.432Z,7.70
2022-10-09T00:41:28.734Z,7.70
2022-10-09T00:44:00.994Z,7.60
2022-10-09T00:46:34.865Z,7.60
2022-10-09T00:49:11.005Z,7.50
2022-10-09T00:51:39.978Z,7.50
2022-10-09T00:54:13.065Z,7.40
2022-10-09T00:56:41.534Z,7.40
2022-10-09T00:59:10.523Z,7.30
2022-10-09T01:01:40.395Z,7.30
2022-10-09T01:04:09.182Z,7.20
2022-10-09T01:06:58.545Z,7.30
2022-10-09T01:09:37.344Z,7.40
2022-10-09T01:12:13.824Z,7.40
2022-10-09T01:14:49.546Z,7.40
2022-10-09T01:17:25.225Z,7.40
2022-10-09T01:20:12.818Z,7.40
2022-10-09T01:22:53.642Z,7.40
2022-10-09T01:25:32.322Z,7.30
2022-10-09T01:28:03.909Z,7.30
2022-10-09T01:30:33.611Z,7.20
2022-10-09T01:33:02.714Z,7.20
2022-10-09T01:35:31.806Z,7.10
2022-10-09T01:38:03.152Z,7.10
2022-10-09T01:40:32.202Z,7.10
2022-10-09T01:43:02.641Z,7.10
2022-10-09T01:45:39.817Z,7.00
2022-10-09T01:48:09.939Z,7.00
2022-10-09T01:50:43.989Z,7.10
2022-10-09T01:53:15.322Z,7.10
2022-10-09T01:55:49.287Z,7.00
2022-10-09T01:58:24.408Z,7.00
2022-10-09T02:01:03.409Z,7.00
2022-10-09T02:03:33.424Z,7.00
2022-10-09T02:06:04.815Z,7.00
2022-10-09T02:08:35.533Z,7.00
2022-10-09T02:11:05.161Z,7.00
2022-10-09T02:13:37.045Z,7.00
2022-10-09T02:16:14.423Z,7.00
2022-10-09T02:18:46.375Z,7.00
2022-10-09T02:21:19.610Z,7.00
2022-10-09T02:23:52.113Z,7.00
2022-10-09T02:26:20.895Z,7.00
2022-10-09T02:28:51.179Z,7.00
2022-10-09T02:31:24.882Z,7.00
2022-10-09T02:33:57.501Z,7.00
2022-10-09T02:36:26.497Z,7.00
2022-10-09T02:38:56.748Z,6.90
2022-10-09T02:41:25.774Z,7.00
2022-10-09T02:43:56.019Z,6.90
2022-10-09T02:46:24.878Z,6.80
2022-10-09T02:48:53.489Z,6.80
2022-10-09T02:51:22.259Z,6.70
2022-10-09T02:53:53.552Z,6.80
2022-10-09T02:56:22.170Z,6.80
2022-10-09T02:58:50.868Z,6.70
2022-10-09T03:01:21.108Z,6.80
2022-10-09T03:03:49.863Z,6.70
2022-10-09T03:06:21.169Z,6.70
2022-10-09T03:08:51.033Z,6.70
2022-10-09T03:11:21.258Z,6.70
2022-10-09T03:13:50.214Z,6.70
2022-10-09T03:16:22.653Z,6.70
2022-10-09T03:18:52.662Z,6.60
2022-10-09T03:21:23.422Z,6.60
2022-10-09T03:23:53.528Z,6.60
2022-10-09T03:26:23.567Z,6.70
2022-10-09T03:28:53.635Z,6.70
2022-10-09T03:34:14.871Z,6.60
2022-10-09T03:36:43.644Z,6.60
2022-10-09T03:39:12.542Z,6.60
2022-10-09T03:41:40.976Z,6.60
2022-10-09T03:44:09.595Z,6.60
2022-10-09T03:46:39.702Z,6.60
2022-10-09T03:49:08.920Z,6.60
2022-10-09T03:51:37.484Z,6.50
2022-10-09T03:54:06.516Z,6.40
2022-10-09T03:56:35.313Z,6.40
2022-10-09T03:59:07.514Z,6.30
2022-10-09T04:01:36.526Z,6.30
2022-10-09T04:04:06.640Z,6.30
2022-10-09T04:06:35.216Z,6.30
2022-10-09T04:09:03.915Z,6.30
2022-10-09T04:11:32.412Z,6.30
2022-10-09T04:14:02.036Z,6.30
2022-10-09T04:16:30.635Z,6.20
2022-10-09T04:18:59.385Z,6.20
2022-10-09T04:21:29.419Z,6.10
2022-10-09T04:23:57.986Z,6.20
2022-10-09T04:26:26.720Z,6.20
2022-10-09T04:28:55.293Z,6.30
2022-10-09T04:31:23.890Z,6.40
2022-10-09T04:33:52.521Z,6.30
2022-10-09T04:36:21.041Z,6.40
2022-10-09T04:38:52.683Z,6.40
2022-10-09T04:41:21.264Z,6.30
2022-10-09T04:43:49.960Z,6.30
2022-10-09T04:46:18.476Z,6.20
2022-10-09T04:48:47.815Z,6.20
2022-10-09T04:51:18.010Z,6.20
2022-10-09T04:53:47.413Z,6.10
2022-10-09T04:56:19.081Z,6.20
2022-10-09T04:58:48.588Z,6.20
2022-10-09T05:01:19.850Z,6.10
2022-10-09T05:03:48.935Z,6.20
2022-10-09T05:06:18.552Z,6.20
2022-10-09T05:08:47.774Z,6.20
2022-10-09T05:11:22.028Z,6.20
2022-10-09T05:13:52.515Z,6.10
2022-10-09T05:16:22.997Z,6.10
2022-10-09T05:18:53.152Z,6.10
2022-10-09T05:21:22.581Z,6.10
2022-10-09T05:23:51.671Z,6.10
2022-10-09T05:26:23.201Z,6.20
2022-10-09T05:28:52.403Z,6.30
2022-10-09T05:31:22.971Z,6.30
2022-10-09T05:33:51.710Z,6.30
2022-10-09T05:36:20.878Z,6.30
2022-10-09T05:38:49.872Z,6.30
2022-10-09T05:41:19.563Z,6.30
2022-10-09T05:43:51.071Z,6.40
2022-10-09T05:46:21.211Z,6.40
2022-10-09T05:48:54.219Z,6.30
2022-10-09T05:51:25.031Z,6.40
2022-10-09T05:53:54.165Z,6.50
2022-10-09T05:56:24.606Z,6.50
2022-10-09T05:58:55.883Z,6.60
2022-10-09T06:01:27.399Z,6.60
2022-10-09T06:03:57.363Z,6.60
2022-10-09T06:06:28.421Z,6.70
2022-10-09T06:08:57.481Z,6.70
2022-10-09T06:11:28.648Z,6.80
2022-10-09T06:13:59.458Z,6.90
2022-10-09T06:16:30.544Z,7.00
2022-10-09T06:19:00.074Z,7.10
2022-10-09T06:21:29.141Z,7.10
2022-10-09T06:23:59.885Z,7.20
2022-10-09T06:26:30.351Z,7.30
2022-10-09T06:29:01.630Z,7.40
2022-10-09T06:31:32.286Z,7.50
2022-10-09T06:34:01.826Z,7.60
2022-10-09T06:36:31.738Z,7.70
2022-10-09T06:39:01.112Z,7.80
2022-10-09T06:41:30.582Z,7.90
2022-10-09T06:44:02.022Z,8.00
2022-10-09T06:46:32.533Z,8.00
2022-10-09T06:49:01.857Z,8.20
2022-10-09T06:51:31.666Z,8.30
2022-10-09T06:54:02.796Z,8.30
2022-10-09T06:56:33.107Z,8.40
2022-10-09T06:59:03.666Z,8.50
2022-10-09T07:01:33.070Z,8.60
2022-10-09T07:04:03.548Z,8.60
2022-10-09T07:06:33.156Z,8.80
2022-10-09T07:09:03.521Z,8.80
2022-10-09T07:11:34.852Z,8.90
2022-10-09T07:14:07.213Z,9.00
2022-10-09T07:16:37.568Z,9.20
2022-10-09T07:19:08.557Z,9.30
2022-10-09T07:21:37.429Z,9.40
2022-10-09T07:24:06.881Z,9.60
2022-10-09T07:26:37.310Z,9.70
2022-10-09T07:29:08.567Z,9.70
2022-10-09T07:31:37.803Z,9.80
2022-10-09T07:34:07.237Z,9.90
2022-10-09T07:36:36.103Z,10.00
2022-10-09T07:39:06.108Z,10.00
2022-10-09T07:41:34.892Z,10.10
2022-10-09T07:44:03.431Z,10.10
2022-10-09T07:46:34.295Z,10.20
2022-10-09T07:49:03.283Z,10.30
2022-10-09T07:51:32.973Z,10.50
2022-10-09T07:54:03.042Z,10.60
2022-10-09T07:56:33.520Z,10.70
2022-10-09T07:59:03.936Z,10.90
2022-10-09T08:01:35.447Z,11.00
2022-10-09T08:04:05.164Z,11.00
2022-10-09T08:06:34.052Z,11.00
2022-10-09T08:09:04.920Z,11.10
2022-10-09T08:11:33.576Z,11.00
2022-10-09T08:14:02.224Z,11.00
2022-10-09T08:16:32.850Z,11.00
2022-10-09T08:19:03.263Z,11.10
2022-10-09T08:21:33.054Z,11.20
2022-10-09T08:24:01.881Z,11.30
2022-10-09T08:26:32.110Z,11.50
2022-10-09T08:29:02.438Z,11.50
2022-10-09T08:31:32.164Z,11.50
2022-10-09T08:34:03.926Z,11.60
2022-10-09T08:36:32.770Z,11.80
2022-10-09T08:39:01.279Z,12.00
2022-10-09T08:41:42.210Z,12.10
2022-10-09T08:44:18.186Z,12.20
2022-10-09T08:46:54.564Z,12.40
2022-10-09T08:49:30.648Z,12.40
2022-10-09T08:52:17.120Z,12.40
2022-10-09T08:54:45.953Z,12.40
2022-10-09T08:57:16.986Z,12.50
2022-10-09T08:59:46.296Z,12.70
2022-10-09T09:02:36.256Z,13.00
2022-10-09T09:05:29.172Z,12.90
2022-10-09T09:08:07.074Z,12.90
2022-10-09T09:10:42.012Z,12.90
2022-10-09T09:13:24.862Z,13.00
2022-10-09T09:15:59.994Z,13.20
2022-10-09T09:18:42.672Z,13.50
2022-10-09T09:21:23.524Z,13.40
2022-10-09T09:23:52.669Z,13.40
2022-10-09T09:26:23.102Z,13.70
2022-10-09T09:28:57.081Z,13.90
2022-10-09T09:31:29.870Z,13.90
2022-10-09T09:34:06.321Z,14.00
2022-10-09T09:36:41.206Z,13.80
2022-10-09T09:40:02.383Z,13.90
2022-10-09T09:42:12.615Z,14.00
2022-10-09T09:44:44.674Z,14.10
2022-10-09T09:47:18.380Z,14.20
2022-10-09T09:49:55.748Z,14.40
2022-10-09T09:52:28.525Z,14.50
2022-10-09T09:54:59.173Z,14.80
2022-10-09T09:57:36.260Z,14.60
2022-10-09T10:00:18.892Z,14.60
2022-10-09T10:02:48.359Z,14.70
2022-10-09T10:05:23.237Z,15.00
2022-10-09T10:07:53.624Z,15.00
2022-10-09T10:10:25.839Z,15.20
2022-10-09T10:12:57.473Z,15.20
2022-10-09T10:15:28.580Z,15.20
2022-10-09T10:18:00.541Z,15.30
2022-10-09T10:20:31.093Z,15.40
2022-10-09T10:23:02.391Z,15.50
2022-10-09T10:25:34.919Z,15.80
2022-10-09T10:28:08.655Z,15.70
2022-10-09T10:30:39.092Z,15.80
2022-10-09T10:33:16.376Z,16.00
2022-10-09T10:35:46.009Z,15.90
2022-10-09T10:38:21.184Z,16.00
2022-10-09T10:40:55.243Z,15.90
2022-10-09T10:43:34.675Z,15.90
2022-10-09T10:46:10.018Z,16.00
2022-10-09T10:48:42.370Z,16.10
2022-10-09T10:51:44.463Z,16.10
2022-10-09T10:54:33.580Z,15.90
2022-10-09T10:57:16.922Z,15.50
2022-10-09T10:59:57.793Z,15.40
2022-10-09T11:02:45.032Z,15.40
2022-10-09T11:05:27.211Z,15.60
2022-10-09T11:08:15.814Z,15.80
2022-10-09T11:10:57.876Z,15.80
2022-10-09T11:13:32.386Z,15.50
2022-10-09T11:16:14.834Z,15.40
2022-10-09T11:18:58.754Z,15.30
2022-10-09T11:21:46.834Z,15.50
2022-10-09T11:24:38.045Z,15.50
2022-10-09T11:27:15.241Z,15.40
2022-10-09T11:29:49.619Z,15.30
2022-10-09T11:32:24.282Z,15.40
2022-10-09T11:34:59.388Z,15.50
2022-10-09T11:37:35.042Z,15.70
2022-10-09T11:40:07.584Z,16.00
2022-10-09T11:42:39.665Z,16.20
2022-10-09T11:45:24.250Z,16.30
2022-10-09T11:48:00.805Z,16.40
2022-10-09T11:50:41.013Z,16.70
2022-10-09T11:53:12.743Z,16.90
2022-10-09T11:55:41.330Z,17.10
2022-10-09T11:58:21.396Z,16.90
2022-10-09T12:00:53.939Z,17.10
2022-10-09T12:03:33.177Z,17.30
2022-10-09T12:06:07.632Z,17.20
2022-10-09T12:08:36.958Z,17.10
2022-10-09T12:11:13.495Z,17.20
2022-10-09T12:13:47.256Z,17.30
2022-10-09T12:16:39.609Z,17.20
2022-10-09T12:19:17.966Z,17.00
2022-10-09T12:21:53.522Z,16.80
2022-10-09T12:24:25.456Z,16.70
2022-10-09T12:26:57.234Z,16.70
2022-10-09T12:29:30.640Z,16.40
2022-10-09T12:32:04.054Z,16.30
2022-10-09T12:34:36.208Z,16.50
2022-10-09T12:37:13.810Z,16.90
2022-10-09T12:39:43.053Z,17.00
2022-10-09T12:42:22.438Z,17.20
2022-10-09T12:44:55.528Z,17.50
2022-10-09T12:47:27.653Z,17.30
2022-10-09T12:49:58.494Z,17.20
2022-10-09T12:52:27.737Z,17.20
2022-10-09T12:54:56.539Z,17.00
2022-10-09T12:57:27.758Z,16.80
2022-10-09T12:59:59.075Z,16.50
2022-10-09T13:02:27.880Z,16.30
2022-10-09T13:05:00.207Z,16.10
2022-10-09T13:07:32.552Z,15.90
2022-10-09T13:10:08.303Z,16.10
2022-10-09T13:12:37.586Z,16.30
2022-10-09T13:15:24.352Z,16.50
2022-10-09T13:17:52.895Z,16.50
2022-10-09T13:20:27.234Z,16.60
2022-10-09T13:22:57.363Z,16.80
2022-10-09T13:25:27.336Z,17.00
2022-10-09T13:27:56.429Z,17.20
2022-10-09T13:30:27.241Z,17.60
2022-10-09T13:32:56.010Z,17.50
2022-10-09T13:35:24.691Z,17.20
2022-10-09T13:37:53.610Z,16.90
2022-10-09T13:40:22.853Z,16.80
2022-10-09T13:42:55.501Z,16.80
2022-10-09T13:45:25.522Z,16.70
2022-10-09T13:47:54.232Z,16.80
2022-10-09T13:50:23.048Z,16.70
2022-10-09T13:52:51.760Z,16.90
2022-10-09T13:55:20.748Z,16.80
2022-10-09T13:57:49.533Z,17.00
2022-10-09T14:00:19.325Z,16.80
2022-10-09T14:02:49.200Z,16.90
2022-10-09T14:05:17.941Z,16.80
2022-10-09T14:07:46.449Z,16.80
2022-10-09T14:10:15.122Z,16.70
2022-10-09T14:12:43.858Z,16.70
2022-10-09T14:15:12.707Z,16.70
2022-10-09T14:17:41.226Z,16.80
2022-10-09T14:20:11.888Z,16.80
2022-10-09T14:22:40.547Z,16.70
2022-10-09T14:25:10.494Z,16.60
2022-10-09T14:27:41.558Z,16.50
2022-10-09T14:30:13.955Z,16.30
2022-10-09T14:32:42.860Z,16.30
2022-10-09T14:35:14.600Z,16.20
2022-10-09T14:37:44.767Z,16.20
2022-10-09T14:40:13.492Z,16.20
2022-10-09T14:42:42.420Z,16.00
2022-10-09T14:45:12.333Z,15.90
2022-10-09T14:47:40.925Z,15.80
2022-10-09T14:50:10.283Z,15.70
2022-10-09T14:52:40.226Z,15.80
2022-10-09T14:55:09.685Z,15.90
2022-10-09T14:57:38.350Z,15.90
2022-10-09T15:00:08.355Z,15.90
2022-10-09T15:02:36.982Z,15.80
2022-10-09T15:05:06.602Z,15.70
2022-10-09T15:07:35.129Z,15.50
2022-10-09T15:10:05.731Z,15.50
2022-10-09T15:12:34.376Z,15.50
2022-10-09T15:15:03.101Z,15.50
2022-10-09T15:17:31.613Z,15.40
2022-10-09T15:20:00.246Z,15.40
2022-10-09T15:22:28.750Z,15.30
2022-10-09T15:24:57.369Z,15.30
2022-10-09T15:27:27.386Z,15.20
2022-10-09T15:29:56.172Z,15.20
2022-10-09T15:32:26.009Z,15.20
2022-10-09T15:34:54.754Z,15.00
2022-10-09T15:37:23.502Z,14.90
2022-10-09T15:39:52.178Z,14.90
2022-10-09T15:42:20.751Z,14.80
2022-10-09T15:44:50.771Z,14.80
2022-10-09T15:47:27.112Z,14.70
2022-10-09T15:50:09.343Z,14.70
2022-10-09T15:52:38.718Z,14.60
2022-10-09T15:55:08.393Z,14.50
2022-10-09T15:57:36.883Z,14.40
2022-10-09T16:00:08.318Z,14.20
2022-10-09T16:02:37.015Z,14.10
2022-10-09T16:05:06.179Z,13.90
2022-10-09T16:07:35.044Z,13.80
2022-10-09T16:10:03.585Z,13.60
2022-10-09T16:12:32.112Z,13.60
2022-10-09T16:15:00.609Z,13.50
2022-10-09T16:17:31.243Z,13.40
2022-10-09T16:20:00.368Z,13.50
2022-10-09T16:22:28.869Z,13.50
2022-10-09T16:24:57.526Z,13.50
2022-10-09T16:27:26.008Z,13.30
2022-10-09T16:29:54.603Z,13.20
2022-10-09T16:32:23.127Z,13.20
2022-10-09T16:34:53.246Z,13.20
2022-10-09T16:37:21.997Z,13.00
2022-10-09T16:39:50.533Z,12.90
2022-10-09T16:42:19.087Z,12.80
2022-10-09T16:44:51.567Z,12.70
2022-10-09T16:47:20.215Z,12.70
2022-10-09T16:49:48.761Z,12.70
2022-10-09T16:52:18.725Z,12.60
2022-10-09T16:54:49.365Z,12.40
2022-10-09T16:57:18.430Z,12.40
2022-10-09T16:59:47.419Z,12.30
2022-10-09T17:02:16.715Z,12.20
2022-10-09T17:04:45.848Z,12.20
2022-10-09T17:07:14.818Z,12.10
2022-10-09T17:09:44.774Z,12.00
2022-10-09T17:12:13.517Z,12.00
2022-10-09T17:14:42.407Z,11.90
2022-10-09T17:17:12.673Z,11.90
2022-10-09T17:19:42.012Z,11.80
2022-10-09T17:22:10.638Z,11.80
2022-10-09T17:24:39.238Z,11.80
2022-10-09T17:27:10.071Z,11.80
2022-10-09T17:29:38.893Z,11.80
2022-10-09T17:32:09.424Z,11.70
2022-10-09T17:34:43.052Z,11.70
2022-10-09T17:37:11.658Z,11.70
2022-10-09T17:39:41.499Z,11.70
2022-10-09T17:42:14.711Z,11.60
2022-10-09T17:44:43.218Z,11.50
2022-10-09T17:47:11.897Z,11.50
2022-10-09T17:49:40.627Z,11.50
2022-10-09T17:52:09.290Z,11.40
2022-10-09T17:54:38.002Z,11.40
2022-10-09T17:57:07.206Z,11.40
2022-10-09T17:59:37.216Z,11.40
2022-10-09T18:02:06.548Z,11.30
2022-10-09T18:04:35.196Z,11.30
2022-10-09T18:07:03.672Z,11.30
2022-10-09T18:09:32.198Z,11.30
2022-10-09T18:12:00.775Z,11.20
2022-10-09T18:14:29.328Z,11.10
2022-10-09T18:16:59.327Z,11.10
2022-10-09T18:19:27.945Z,11.10
2022-10-09T18:21:56.610Z,11.00
2022-10-09T18:24:25.087Z,11.10
2022-10-09T18:26:53.680Z,11.10
2022-10-09T18:29:22.279Z,11.10
2022-10-09T18:31:55.600Z,11.10
2022-10-09T18:34:25.589Z,11.10
2022-10-09T18:36:54.710Z,11.00
2022-10-09T18:39:23.252Z,11.00
2022-10-09T18:41:53.967Z,10.90
2022-10-09T18:44:24.709Z,10.80
2022-10-09T18:46:56.830Z,10.80
2022-10-09T18:49:31.212Z,10.70
2022-10-09T18:52:02.841Z,10.70
2022-10-09T18:54:31.758Z,10.70
2022-10-09T18:57:00.464Z,10.70
2022-10-09T18:59:29.579Z,10.70
2022-10-09T19:01:58.132Z,10.70
2022-10-09T19:04:28.178Z,10.70
2022-10-09T19:06:56.873Z,10.70
2022-10-09T19:09:25.503Z,10.70
2022-10-09T19:11:54.139Z,10.70
2022-10-09T19:14:22.793Z,10.70
2022-10-09T19:16:51.333Z,10.70
2022-10-09T19:19:19.896Z,10.70
2022-10-09T19:21:49.889Z,10.60
2022-10-09T19:24:18.469Z,10.50
2022-10-09T19:26:46.945Z,10.60
2022-10-09T19:29:15.480Z,10.70
2022-10-09T19:31:44.207Z,10.70
2022-10-09T19:34:12.801Z,10.60
2022-10-09T19:36:41.460Z,10.60
2022-10-09T19:39:11.885Z,10.60
2022-10-09T19:41:42.100Z,10.60
2022-10-09T19:44:11.034Z,10.50
2022-10-09T19:46:40.672Z,10.50
2022-10-09T19:49:09.831Z,10.50
2022-10-09T19:51:38.750Z,10.40
2022-10-09T19:54:09.674Z,10.40
2022-10-09T19:56:41.120Z,10.40
2022-10-09T19:59:11.588Z,10.40
2022-10-09T20:01:40.583Z,10.50
2022-10-09T20:04:11.351Z,10.50
2022-10-09T20:06:40.787Z,10.40
2022-10-09T20:09:11.586Z,10.40
2022-10-09T20:11:41.622Z,10.50
2022-10-09T20:14:10.961Z,10.50
2022-10-09T20:16:39.803Z,10.50
2022-10-09T20:19:08.689Z,10.50
2022-10-09T20:21:37.868Z,10.40
2022-10-09T20:24:07.331Z,10.30
2022-10-09T20:26:40.885Z,10.30
2022-10-09T20:29:13.104Z,10.30
2022-10-09T20:31:42.353Z,10.40
2022-10-09T20:34:11.715Z,10.40
2022-10-09T20:36:40.508Z,10.30
2022-10-09T20:39:11.028Z,10.30
2022-10-09T20:41:40.742Z,10.30
2022-10-09T20:44:09.841Z,10.30
2022-10-09T20:46:41.141Z,10.30
2022-10-09T20:49:13.083Z,10.30
2022-10-09T20:51:42.630Z,10.30
2022-10-09T20:54:17.430Z,10.30
2022-10-09T20:56:46.062Z,10.20
2022-10-09T20:59:15.842Z,10.10
2022-10-09T21:01:46.112Z,10.20
2022-10-09T21:04:14.959Z,10.20
2022-10-09T21:06:43.954Z,10.20
2022-10-09T21:09:42.350Z,10.10
2022-10-09T21:12:11.073Z,10.00
2022-10-09T21:14:39.608Z,9.90
2022-10-09T21:17:09.705Z,9.90
2022-10-09T21:19:38.211Z,9.90
2022-10-09T21:22:06.954Z,9.90
2022-10-09T21:24:35.401Z,9.90
2022-10-09T21:27:06.015Z,9.90
2022-10-09T21:29:35.617Z,9.90
2022-10-09T21:32:04.460Z,9.90
2022-10-09T21:34:34.475Z,9.90
2022-10-09T21:37:22.059Z,10.00
2022-10-09T21:39:51.265Z,10.00
2022-10-09T21:42:20.694Z,9.90
2022-10-09T21:44:49.193Z,9.90
2022-10-09T21:47:19.944Z,9.90
2022-10-09T21:49:50.056Z,9.90
2022-10-09T21:52:18.615Z,9.90
2022-10-09T21:54:47.206Z,9.80
2022-10-09T21:57:16.015Z,9.80
2022-10-09T21:59:44.796Z,9.70
2022-10-09T22:02:13.467Z,9.70
2022-10-09T22:04:42.075Z,9.70
2022-10-09T22:07:12.186Z,9.70
2022-10-09T22:09:40.829Z,9.70
2022-10-09T22:12:09.583Z,9.70
2022-10-09T22:15:04.602Z,9.50
2022-10-09T22:17:33.246Z,9.50
2022-10-09T22:20:01.983Z,9.50
2022-10-09T22:22:31.821Z,9.40
2022-10-09T22:25:00.572Z,9.40
2022-10-09T22:27:29.542Z,9.30
2022-10-09T22:29:58.181Z,9.30
2022-10-09T22:32:26.712Z,9.30
2022-10-09T22:34:55.237Z,9.30
2022-10-09T22:37:23.724Z,9.30
2022-10-09T22:39:53.623Z,9.30
2022-10-09T22:42:22.187Z,9.20
2022-10-09T22:44:50.576Z,9.20
2022-10-09T22:47:19.103Z,9.30
2022-10-09T22:49:47.793Z,9.30
2022-10-09T22:52:16.202Z,9.20
2022-10-09T22:54:44.892Z,9.20
2022-10-09T22:57:14.782Z,9.20
2022-10-09T22:59:43.213Z,9.20
2022-10-09T23:02:11.712Z,9.20
2022-10-09T23:04:40.261Z,9.20
2022-10-09T23:07:08.913Z,9.10
2022-10-09T23:09:37.411Z,9.10
2022-10-09T23:12:05.988Z,9.10
2022-10-09T23:14:35.906Z,9.10
2022-10-09T23:17:04.378Z,9.10
2022-10-09T23:19:33.956Z,9.00
2022-10-09T23:22:02.466Z,9.00
2022-10-09T23:24:31.520Z,9.00
2022-10-09T23:27:00.049Z,9.00
2022-10-09T23:29:29.175Z,8.90
2022-10-09T23:31:59.265Z,8.90
2022-10-09T23:34:27.744Z,8.80
2022-10-09T23:36:56.243Z,8.80
2022-10-09T23:39:24.720Z,8.90
2022-10-09T23:41:53.235Z,8.90
2022-10-09T23:44:22.380Z,8.90
2022-10-09T23:46:50.948Z,8.80
2022-10-09T23:49:20.813Z,8.80
2022-10-09T23:51:49.285Z,8.80
2022-10-09T23:54:17.916Z,8.80
2022-10-09T23:56:46.417Z,8.80
2022-10-09T23:59:14.896Z,8.70
